地図

経路データ

SID SEASON NUMBER BASIN SUBBASIN NAME ISO_TIME NATURE LAT LON WMO_WIND WMO_PRES WMO_AGENCY TRACK_TYPE DIST2LAND LANDFALL IFLAG USA_AGENCY USA_ATCF_ID USA_LAT USA_LON USA_RECORD USA_STATUS USA_WIND USA_PRES USA_SSHS USA_R34_NE USA_R34_SE USA_R34_SW USA_R34_NW USA_R50_NE USA_R50_SE USA_R50_SW USA_R50_NW USA_R64_NE USA_R64_SE USA_R64_SW USA_R64_NW USA_POCI USA_ROCI USA_RMW USA_EYE TOKYO_LAT TOKYO_LON TOKYO_GRADE TOKYO_WIND TOKYO_PRES TOKYO_R50_DIR TOKYO_R50_LONG TOKYO_R50_SHORT TOKYO_R30_DIR TOKYO_R30_LONG TOKYO_R30_SHORT TOKYO_LAND CMA_LAT CMA_LON CMA_CAT CMA_WIND CMA_PRES HKO_LAT HKO_LON HKO_CAT HKO_WIND HKO_PRES NEWDELHI_LAT NEWDELHI_LON NEWDELHI_GRADE NEWDELHI_WIND NEWDELHI_PRES NEWDELHI_CI NEWDELHI_DP NEWDELHI_POCI REUNION_LAT REUNION_LON REUNION_TYPE REUNION_WIND REUNION_PRES REUNION_TNUM REUNION_CI REUNION_RMW REUNION_R34_NE REUNION_R34_SE REUNION_R34_SW REUNION_R34_NW REUNION_R50_NE REUNION_R50_SE REUNION_R50_SW REUNION_R50_NW REUNION_R64_NE REUNION_R64_SE REUNION_R64_SW REUNION_R64_NW BOM_LAT BOM_LON BOM_TYPE BOM_WIND BOM_PRES BOM_TNUM BOM_CI BOM_RMW BOM_R34_NE BOM_R34_SE BOM_R34_SW BOM_R34_NW BOM_R50_NE BOM_R50_SE BOM_R50_SW BOM_R50_NW BOM_R64_NE BOM_R64_SE BOM_R64_SW BOM_R64_NW BOM_ROCI BOM_POCI BOM_EYE BOM_POS_METHOD BOM_PRES_METHOD NADI_LAT NADI_LON NADI_CAT NADI_WIND NADI_PRES WELLINGTON_LAT WELLINGTON_LON WELLINGTON_WIND WELLINGTON_PRES DS824_LAT DS824_LON DS824_STAGE DS824_WIND DS824_PRES TD9636_LAT TD9636_LON TD9636_STAGE TD9636_WIND TD9636_PRES TD9635_LAT TD9635_LON TD9635_WIND TD9635_PRES TD9635_ROCI NEUMANN_LAT NEUMANN_LON NEUMANN_CLASS NEUMANN_WIND NEUMANN_PRES MLC_LAT MLC_LON MLC_CLASS MLC_WIND MLC_PRES USA_GUST BOM_GUST BOM_GUST_PER REUNION_GUST REUNION_GUST_PER USA_SEAHGT USA_SEARAD_NE USA_SEARAD_SE USA_SEARAD_SW USA_SEARAD_NW STORM_SPEED STORM_DIR
1919150N13067 1919 11 NI AS NOT_NAMED 1919-05-30 00:00:00 TS 12.8000 67.1000 main 777 777 _________O____ -1 12.8000 67.1000 TC 34 3 279
1919150N13067 1919 11 NI AS NOT_NAMED 1919-05-30 03:00:00 TS 12.8267 66.9267 main 797 797 _________PO___ -1 12.8401 66.8400 TC 36 12.8000 67.1000 2 4 283
1919150N13067 1919 11 NI AS NOT_NAMED 1919-05-30 06:00:00 TS 12.8889 66.7007 main 812 812 _________OP___ -1 12.9000 66.6000 TC 39 12.8722 66.8517 2 5 289
1919150N13067 1919 11 NI AS NOT_NAMED 1919-05-30 09:00:00 TS 12.9723 66.4869 main 828 828 _________PP___ -1 12.9925 66.3925 TC 42 12.9454 66.6127 2 4 294
1919150N13067 1919 11 NI AS NOT_NAMED 1919-05-30 12:00:00 TS 13.0604 66.2962 main 843 843 _________OP___ -1 13.1000 66.2000 TC 45 13.0209 66.3923 2 4 295
1919150N13067 1919 11 NI AS NOT_NAMED 1919-05-30 15:00:00 TS 13.1500 66.0962 main 857 857 _________PO___ -1 13.2000 65.9925 TC 49 13.1000 66.2000 3 4 296
1919150N13067 1919 11 NI AS NOT_NAMED 1919-05-30 18:00:00 TS 13.2422 65.9194 main 877 872 _________OP___ -1 13.3000 65.8000 TC 54 13.1844 66.0389 3 4 301
1919150N13067 1919 11 NI AS NOT_NAMED 1919-05-30 21:00:00 TS 13.3347 65.7798 main 882 877 _________PP___ -1 13.3924 65.6724 TC 59 13.2771 65.8872 3 4 303
1919150N13067 1919 11 NI AS NOT_NAMED 1919-05-31 00:00:00 TS 13.4406 65.6085 main 897 892 _________OP___ -1 13.5000 65.5000 TC 64 13.3812 65.7169 3 5 299
1919150N13067 1919 11 NI AS NOT_NAMED 1919-05-31 03:00:00 TS 13.5713 65.3400 main 918 918 _________PO___ -1 13.6426 65.1800 TC 64 13.5000 65.5000 4 7 295
1919150N13067 1919 11 NI AS NOT_NAMED 1919-05-31 06:00:00 TS 13.7200 64.9921 main 944 922 _________OP___ -1 13.8000 64.8000 TC 64 13.6400 65.1843 4 8 294
1919150N13067 1919 11 NI AS NOT_NAMED 1919-05-31 09:00:00 TS 13.8752 64.6289 main 922 890 _________PP___ -1 13.9575 64.4350 TC 64 13.7929 64.8228 4 8 294
1919150N13067 1919 11 NI AS NOT_NAMED 1919-05-31 12:00:00 TS 14.0247 64.2749 main 890 858 _________OP___ -1 14.1000 64.1000 TC 64 13.9493 64.4499 4 7 293
1919150N13067 1919 11 NI AS NOT_NAMED 1919-05-31 15:00:00 TS 14.1500 63.9674 main 858 826 _________PO___ -1 14.1999 63.8349 TC 64 14.1000 64.1000 4 6 294
1919150N13067 1919 11 NI AS NOT_NAMED 1919-05-31 18:00:00 TS 14.2535 63.7346 main 819 795 _________OP___ -1 14.3000 63.6000 TC 64 14.2071 63.8692 4 5 297
1919150N13067 1919 11 NI AS NOT_NAMED 1919-05-31 21:00:00 TS 14.3693 63.5268 main 795 772 _________PP___ -1 14.4273 63.3948 TC 64 14.3114 63.6588 4 5 300
1919150N13067 1919 11 NI AS NOT_NAMED 1919-06-01 00:00:00 TS 14.5175 63.2595 main 772 725 _________OP___ -1 14.6000 63.1000 TC 64 14.4351 63.4190 4 7 298
1919150N13067 1919 11 NI AS NOT_NAMED 1919-06-01 03:00:00 TS 14.7138 62.8475 main 717 670 _________PO___ -1 14.8276 62.5950 TC 64 14.6000 63.1000 4 10 296
1919150N13067 1919 11 NI AS NOT_NAMED 1919-06-01 06:00:00 TS 14.9620 62.3222 main 655 601 _________OP___ -1 15.1000 62.0000 TC 64 14.8240 62.6444 4 12 297
1919150N13067 1919 11 NI AS NOT_NAMED 1919-06-01 09:00:00 TS 15.2413 61.7812 main 601 532 _________PP___ -1 15.3923 61.4574 TC 64 15.0903 62.1049 4 12 298
1919150N13067 1919 11 NI AS NOT_NAMED 1919-06-01 12:00:00 TS 15.5432 61.2065 main 532 465 _________OP___ -1 15.7000 60.9000 TC 64 15.3864 61.5129 4 13 298
1919150N13067 1919 11 NI AS NOT_NAMED 1919-06-01 15:00:00 TS 15.8462 60.6036 main 465 405 _________PO___ -1 15.9924 60.3073 TC 64 15.7000 60.9000 4 13 298
1919150N13067 1919 11 NI AS NOT_NAMED 1919-06-01 18:00:00 TS 16.1405 60.0383 main 399 342 _________OP___ -1 16.3000 59.7000 TC 64 16.0210 60.2920 4 13 299
1919150N13067 1919 11 NI AS NOT_NAMED 1919-06-01 21:00:00 TS 16.4636 59.4541 main 332 272 _________PP___ -1 16.6403 59.0980 TC 64 16.3458 59.6915 4 13 300
1919150N13067 1919 11 NI AS NOT_NAMED 1919-06-02 00:00:00 TS 16.7819 58.8968 main 272 235 _________OP___ -1 17.0000 58.5000 TC 64 16.6728 59.0952 4 11 300
1919150N13067 1919 11 NI AS NOT_NAMED 1919-06-02 03:00:00 NR 17.0000 58.5000 main 235 __________O___ -1 TC 17.0000 58.5000 4 9 300

IBTrACS Databaseについて

本データベースは、米国NOAAが公開する1842年以降の世界の熱帯低気圧のベストトラックデータアーカイブInternational Best Track Archive for Climate Stewardship (IBTrACS)を、ウェブで閲覧しやすい形式に変換したものです。

最終更新日:2021-11-26